KTPF/TPF METAR and TAF weather

Enter ICAO airport designator
Station Type Date Time Source
KTPF METAR 2020/02/26 09:15 UTC NOAA

KTPF 260915Z AUTO 20004KT 10SM SCT070 OVC100 20/20 A2993 RMK AO2


Station Type Date Time Source
KTPF Decoded METAR 2020/02/26 09:15 UTC NOAA

Tampa, Peter O Knight Airport, FL, United States (KTPF) 27-54-56N 082-26-57W
Feb 26, 2020 - 04:15 AM EST / 2020.02.26 0915 UTC
Wind: from the SSW (200 degrees) at 5 MPH (4 KT):0
Visibility: 10 mile(s):0
Sky conditions: overcast
Temperature: 68 F (20 C)
Dew Point: 68 F (20 C)
Relative Humidity: 100%
Pressure (altimeter): 29.93 in. Hg (1013 hPa)
ob: KTPF 260915Z AUTO 20004KT 10SM SCT070 OVC100 20/20 A2993 RMK AO2
cycle: 9

Station Type Date Time Source
KTPF TAF UTC NOAA

Error!

Example: see airport list